Time;durP1;ratioP1;P1;durP2;ratioP2;P2;SDS_P1;SDS_P2;PMS_P1;PMS_P2;Temp;Humidity;BMP_temperature;BMP_pressure;BME280_temperature;BME280_humidity;BME280_pressure;Samples;Min_cycle;Max_cycle;Signal;HPM_P1;HPM_P2
2022/03/21 00:00:13;;;;;;;25.03;22.50;;;9.90;99.90;;;;;;1019328;29;20114;-71
2022/03/21 00:00:51;;;;;;;26.40;23.75;;;9.90;99.90;;;;;;1018581;29;20558;-71
2022/03/21 00:01:22;;;;;;;26.55;23.88;;;9.90;99.90;;;;;;1017117;29;20035;-71
2022/03/21 00:01:55;;;;;;;26.88;23.38;;;9.90;99.90;;;;;;1013119;29;20380;-71
2022/03/21 00:02:26;;;;;;;26.27;23.67;;;9.90;99.90;;;;;;1012390;29;20312;-71
2022/03/21 00:02:57;;;;;;;26.90;24.37;;;9.90;99.90;;;;;;1014969;29;20032;-71
2022/03/21 00:03:29;;;;;;;27.13;24.50;;;9.90;99.90;;;;;;1014871;29;20071;-71
2022/03/21 00:03:59;;;;;;;25.75;23.08;;;9.90;99.90;;;;;;1015541;29;20028;-71
2022/03/21 00:04:30;;;;;;;29.80;24.33;;;9.90;99.90;;;;;;1017011;29;20025;-72
2022/03/21 00:05:01;;;;;;;27.97;25.17;;;9.90;99.90;;;;;;1018854;29;20038;-71
2022/03/21 00:05:32;;;;;;;25.98;23.67;;;9.90;99.90;;;;;;1018761;29;20038;-72
2022/03/21 00:06:04;;;;;;;26.20;23.67;;;9.90;99.90;;;;;;1018721;29;20043;-72
2022/03/21 00:06:35;;;;;;;27.08;24.33;;;9.80;99.90;;;;;;1019036;29;20030;-72
2022/03/21 00:07:05;;;;;;;26.30;23.70;;;9.80;99.90;;;;;;1018875;29;20035;-71
2022/03/21 00:07:36;;;;;;;25.93;23.53;;;9.80;99.90;;;;;;1018774;29;20314;-72
2022/03/21 00:08:06;;;;;;;28.13;25.53;;;9.80;99.90;;;;;;1018908;29;20479;-72
2022/03/21 00:08:37;;;;;;;27.77;25.00;;;9.80;99.90;;;;;;1019041;29;20028;-71
2022/03/21 00:09:07;;;;;;;26.60;24.07;;;9.80;99.90;;;;;;1015496;29;20032;-72
2022/03/21 00:09:38;;;;;;;27.70;25.00;;;9.80;99.90;;;;;;1015991;29;20159;-72
2022/03/21 00:10:09;;;;;;;26.20;23.50;;;9.80;99.90;;;;;;1019324;29;20042;-72
2022/03/21 00:10:40;;;;;;;25.67;23.10;;;9.80;99.90;;;;;;1018577;29;20833;-72
2022/03/21 00:11:11;;;;;;;25.77;23.30;;;9.80;99.90;;;;;;1018861;29;20026;-72
2022/03/21 00:11:42;;;;;;;25.60;23.13;;;9.80;99.90;;;;;;1018802;29;20092;-72
2022/03/21 00:12:13;;;;;;;24.90;22.30;;;9.80;99.90;;;;;;1019008;29;20060;-72
2022/03/21 00:12:45;;;;;;;25.67;23.15;;;9.80;99.90;;;;;;1019075;29;20474;-72
2022/03/21 00:13:16;;;;;;;26.20;23.70;;;9.80;99.90;;;;;;1019201;29;20030;-72
2022/03/21 00:13:49;;;;;;;26.02;23.58;;;9.80;99.90;;;;;;1019208;29;20024;-70
2022/03/21 00:14:20;;;;;;;25.55;22.95;;;9.80;99.90;;;;;;1018720;29;20530;-70
2022/03/21 00:14:50;;;;;;;26.67;24.00;;;9.80;99.90;;;;;;1019277;29;20478;-70
2022/03/21 00:15:23;;;;;;;27.63;25.00;;;9.80;99.90;;;;;;1018785;29;20024;-70
2022/03/21 00:15:54;;;;;;;26.13;23.15;;;9.80;99.90;;;;;;1014798;29;20024;-70
2022/03/21 00:16:25;;;;;;;26.63;24.03;;;9.80;99.90;;;;;;1014887;29;20059;-70
2022/03/21 00:16:55;;;;;;;24.80;22.40;;;9.80;99.90;;;;;;1011572;29;20283;-72
2022/03/21 00:17:26;;;;;;;26.77;23.97;;;9.80;99.90;;;;;;1014928;29;20032;-71
2022/03/21 00:17:57;;;;;;;26.17;23.57;;;9.80;99.90;;;;;;1014709;29;20240;-71
2022/03/21 00:18:27;;;;;;;27.40;24.33;;;9.80;99.90;;;;;;1015122;29;20012;-71
2022/03/21 00:19:00;;;;;;;25.77;23.23;;;9.80;99.90;;;;;;1015288;29;20110;-71
2022/03/21 00:19:30;;;;;;;25.55;22.95;;;9.80;99.90;;;;;;1015192;29;20023;-72
2022/03/21 00:20:01;;;;;;;27.07;24.27;;;9.80;99.90;;;;;;1015229;29;20016;-72
2022/03/21 00:20:33;;;;;;;27.67;25.17;;;9.80;99.90;;;;;;1014802;29;20471;-72
2022/03/21 00:21:03;;;;;;;28.50;25.85;;;9.80;99.90;;;;;;1014737;29;20052;-72
2022/03/21 00:21:35;;;;;;;27.57;24.57;;;9.80;99.90;;;;;;1014840;29;20377;-72
2022/03/21 00:22:05;;;;;;;28.33;24.55;;;9.80;99.90;;;;;;1015225;29;20012;-72
2022/03/21 00:22:37;;;;;;;28.43;25.67;;;9.80;99.90;;;;;;1015180;29;20037;-71
2022/03/21 00:23:09;;;;;;;26.63;24.02;;;9.80;99.90;;;;;;1015183;29;20012;-71
2022/03/21 00:23:40;;;;;;;26.92;24.17;;;9.70;99.90;;;;;;1017670;29;20020;-70
2022/03/21 00:24:10;;;;;;;25.48;22.88;;;9.70;99.90;;;;;;1019462;29;20118;-71
2022/03/21 00:24:41;;;;;;;27.77;25.10;;;9.70;99.90;;;;;;1018455;29;20019;-70
2022/03/21 00:25:12;;;;;;;26.90;24.25;;;9.70;99.90;;;;;;1019372;29;20046;-70
2022/03/21 00:25:43;;;;;;;27.83;25.00;;;9.70;99.90;;;;;;1018890;29;20324;-71
2022/03/21 00:26:15;;;;;;;27.47;24.83;;;9.70;99.90;;;;;;1018707;29;20020;-71
2022/03/21 00:26:45;;;;;;;28.70;25.90;;;9.70;99.90;;;;;;1018551;29;20012;-71
2022/03/21 00:27:16;;;;;;;26.90;24.37;;;9.70;99.90;;;;;;1019067;29;20055;-70
2022/03/21 00:27:46;;;;;;;28.43;25.53;;;9.60;99.90;;;;;;1018723;29;20020;-70
2022/03/21 00:28:17;;;;;;;27.60;24.90;;;9.70;99.90;;;;;;1017258;29;20019;-70
2022/03/21 00:28:49;;;;;;;27.13;24.43;;;9.60;99.90;;;;;;1014855;29;20367;-71
2022/03/21 00:29:20;;;;;;;27.60;24.65;;;9.60;99.90;;;;;;1015313;29;20531;-71
2022/03/21 00:29:50;;;;;;;28.43;25.67;;;9.60;99.90;;;;;;1015249;29;20483;-70
2022/03/21 00:30:21;;;;;;;27.30;24.80;;;9.60;99.90;;;;;;1015243;29;20063;-70
2022/03/21 00:30:53;;;;;;;28.10;25.27;;;9.60;99.90;;;;;;1014932;29;20020;-70
2022/03/21 00:31:23;;;;;;;27.08;24.50;;;9.60;99.90;;;;;;1015323;29;20517;-70
2022/03/21 00:31:55;;;;;;;27.07;24.47;;;9.60;99.90;;;;;;1014681;29;20491;-69
2022/03/21 00:32:25;;;;;;;27.80;24.98;;;9.60;99.90;;;;;;1015028;29;20717;-71
2022/03/21 00:32:56;;;;;;;27.70;25.00;;;9.60;99.90;;;;;;1014765;29;20785;-71
2022/03/21 00:33:27;;;;;;;27.05;24.27;;;9.60;99.90;;;;;;1014983;29;20016;-70
2022/03/21 00:33:57;;;;;;;28.30;25.50;;;9.60;99.90;;;;;;1014995;29;20013;-71
2022/03/21 00:34:28;;;;;;;28.60;25.90;;;9.60;99.90;;;;;;1015175;29;20029;-72
2022/03/21 00:34:58;;;;;;;27.10;24.47;;;9.60;99.90;;;;;;1015128;29;20023;-72
2022/03/21 00:35:29;;;;;;;26.40;23.87;;;9.60;99.90;;;;;;1014888;29;20016;-70
2022/03/21 00:36:00;;;;;;;28.90;26.20;;;9.60;99.90;;;;;;1014508;29;20104;-70
2022/03/21 00:36:34;;;;;;;29.05;26.02;;;9.50;99.90;;;;;;1014954;29;20063;-72
2022/03/21 00:37:04;;;;;;;27.30;24.50;;;9.60;99.90;;;;;;1014712;29;20048;-71
2022/03/21 00:37:37;;;;;;;26.73;24.10;;;9.50;99.90;;;;;;1015104;29;20013;-71
2022/03/21 00:38:13;;;;;;;29.10;26.20;;;9.50;99.90;;;;;;1014774;29;20012;-71
2022/03/21 00:38:43;;;;;;;25.70;23.13;;;9.50;99.90;;;;;;1015013;29;20146;-71
2022/03/21 00:39:14;;;;;;;27.73;25.17;;;9.50;99.90;;;;;;1014656;29;20572;-71
2022/03/21 00:39:45;;;;;;;27.77;25.20;;;9.50;99.90;;;;;;1014799;29;20214;-71
2022/03/21 00:40:17;;;;;;;27.27;24.47;;;9.50;99.90;;;;;;1019001;29;20101;-70
2022/03/21 00:40:48;;;;;;;27.45;24.65;;;9.50;99.90;;;;;;1018746;29;20024;-71
2022/03/21 00:41:20;;;;;;;28.38;24.75;;;9.50;99.90;;;;;;1018583;29;20610;-70
2022/03/21 00:41:51;;;;;;;27.20;24.42;;;9.50;99.90;;;;;;1018797;29;20502;-70
2022/03/21 00:42:22;;;;;;;27.25;24.60;;;9.50;99.90;;;;;;1016962;29;20487;-72
2022/03/21 00:42:53;;;;;;;24.42;22.00;;;9.50;99.90;;;;;;1015364;29;20032;-71
2022/03/21 00:43:24;;;;;;;28.50;25.73;;;9.50;99.90;;;;;;1014979;29;20056;-72
2022/03/21 00:43:55;;;;;;;29.50;26.50;;;9.50;99.90;;;;;;1018360;29;20020;-70
2022/03/21 00:44:25;;;;;;;25.57;23.13;;;9.50;99.90;;;;;;1019076;29;20271;-71
2022/03/21 00:44:56;;;;;;;28.13;25.43;;;9.50;99.90;;;;;;1017963;29;20039;-71
2022/03/21 00:45:28;;;;;;;26.17;23.67;;;9.50;99.90;;;;;;1015304;29;20043;-72
2022/03/21 00:45:58;;;;;;;27.80;25.08;;;9.50;99.90;;;;;;1014761;29;20039;-71
2022/03/21 00:46:29;;;;;;;27.87;25.17;;;9.50;99.90;;;;;;1014681;29;20103;-70
2022/03/21 00:46:59;;;;;;;28.03;25.33;;;9.50;99.90;;;;;;1014876;29;20535;-71
2022/03/21 00:47:31;;;;;;;27.13;24.40;;;9.40;99.90;;;;;;1014602;29;20836;-72
2022/03/21 00:48:02;;;;;;;27.25;24.35;;;9.40;99.90;;;;;;1015031;29;20071;-72
2022/03/21 00:48:32;;;;;;;30.87;27.73;;;9.40;99.90;;;;;;1014593;29;20083;-71
2022/03/21 00:49:04;;;;;;;28.00;25.30;;;9.50;99.90;;;;;;1014779;29;20032;-72
2022/03/21 00:49:34;;;;;;;27.48;24.77;;;9.40;99.90;;;;;;1017263;29;20020;-71
2022/03/21 00:50:07;;;;;;;28.90;26.00;;;9.40;99.90;;;;;;1017157;29;20024;-71
2022/03/21 00:50:38;;;;;;;29.25;26.45;;;9.40;99.90;;;;;;1014622;29;20100;-71
2022/03/21 00:51:08;;;;;;;27.70;25.00;;;9.40;99.90;;;;;;1014728;29;20084;-71
2022/03/21 00:51:40;;;;;;;27.73;25.00;;;9.40;99.90;;;;;;1014419;29;20032;-70
2022/03/21 00:52:10;;;;;;;28.17;25.33;;;9.40;99.90;;;;;;1015027;29;20047;-72
2022/03/21 00:52:46;;;;;;;26.57;24.03;;;9.40;99.90;;;;;;1014823;29;20396;-70
2022/03/21 00:53:17;;;;;;;29.05;26.25;;;9.40;99.90;;;;;;1014689;29;20979;-70
2022/03/21 00:53:47;;;;;;;28.50;25.80;;;9.40;99.90;;;;;;1014609;29;20020;-71
2022/03/21 00:54:18;;;;;;;27.33;24.67;;;9.30;99.90;;;;;;1014589;29;20099;-71
2022/03/21 00:54:48;;;;;;;27.63;24.93;;;9.30;99.90;;;;;;1014611;29;20020;-71
2022/03/21 00:55:21;;;;;;;29.00;24.67;;;9.30;99.90;;;;;;1016992;29;20759;-70
2022/03/21 00:55:52;;;;;;;27.45;24.70;;;9.30;99.90;;;;;;1018735;29;20020;-71
2022/03/21 00:56:23;;;;;;;27.00;24.30;;;9.30;99.90;;;;;;1018705;29;20031;-70
2022/03/21 00:56:53;;;;;;;27.10;24.23;;;9.30;99.90;;;;;;1018776;29;20024;-71
2022/03/21 00:57:24;;;;;;;27.90;24.90;;;9.30;99.90;;;;;;1018407;29;20123;-70
2022/03/21 00:57:55;;;;;;;27.83;25.23;;;9.30;99.90;;;;;;1020803;29;20050;-70
2022/03/21 00:58:25;;;;;;;28.17;25.40;;;9.30;99.90;;;;;;1022505;29;20062;-70
2022/03/21 00:58:56;;;;;;;26.87;24.07;;;9.30;99.90;;;;;;1022425;29;20019;-70
2022/03/21 00:59:26;;;;;;;28.00;25.23;;;9.30;99.90;;;;;;1018737;29;20068;-69
2022/03/21 00:59:57;;;;;;;28.90;25.90;;;9.30;99.90;;;;;;1018371;29;20024;-69
2022/03/21 01:00:30;;;;;;;28.47;25.67;;;9.30;99.90;;;;;;1015841;29;20591;-69
2022/03/21 01:01:00;;;;;;;29.35;26.40;;;9.30;99.90;;;;;;1014433;29;20140;-69
2022/03/21 01:01:32;;;;;;;29.10;26.00;;;9.30;99.90;;;;;;1014507;29;20016;-70
2022/03/21 01:02:02;;;;;;;29.70;26.88;;;9.20;99.90;;;;;;1014658;29;20019;-70
2022/03/21 01:02:33;;;;;;;28.60;25.70;;;9.20;99.90;;;;;;1014524;29;20059;-70
2022/03/21 01:03:04;;;;;;;28.60;25.73;;;9.20;99.90;;;;;;1014344;29;20023;-70
2022/03/21 01:03:35;;;;;;;29.77;26.70;;;9.20;99.90;;;;;;1014719;29;20067;-70
2022/03/21 01:04:05;;;;;;;26.87;24.20;;;9.20;99.90;;;;;;1014695;29;20004;-71
2022/03/21 01:04:36;;;;;;;28.63;25.77;;;9.20;99.90;;;;;;1016810;29;20019;-70
2022/03/21 01:05:08;;;;;;;27.70;24.90;;;9.20;99.90;;;;;;1015082;29;20016;-70
2022/03/21 01:05:39;;;;;;;27.13;24.50;;;9.20;99.90;;;;;;1017631;29;20016;-70
2022/03/21 01:06:09;;;;;;;27.80;25.08;;;9.20;99.90;;;;;;1018758;29;20107;-71
2022/03/21 01:06:40;;;;;;;28.63;25.93;;;9.20;99.90;;;;;;1018482;29;20011;-70
2022/03/21 01:07:10;;;;;;;27.60;24.77;;;9.20;99.90;;;;;;1018771;29;20076;-71
2022/03/21 01:07:42;;;;;;;28.10;25.20;;;9.20;99.90;;;;;;1018529;29;20012;-71
2022/03/21 01:08:12;;;;;;;26.98;24.35;;;9.20;99.90;;;;;;1018767;29;20016;-72
2022/03/21 01:08:43;;;;;;;29.73;26.10;;;9.20;99.90;;;;;;1018267;29;20108;-71
2022/03/21 01:09:17;;;;;;;29.23;26.30;;;9.20;99.90;;;;;;1018600;29;20019;-71
2022/03/21 01:09:47;;;;;;;27.33;24.63;;;9.20;99.90;;;;;;1018203;29;20012;-72
2022/03/21 01:10:20;;;;;;;27.47;24.87;;;9.20;99.90;;;;;;1018290;29;20125;-71
2022/03/21 01:10:50;;;;;;;30.05;27.13;;;9.20;99.90;;;;;;1018013;29;20094;-71
2022/03/21 01:11:22;;;;;;;25.13;22.73;;;9.20;99.90;;;;;;1018747;29;20024;-71
2022/03/21 01:11:53;;;;;;;28.65;25.92;;;9.10;99.90;;;;;;1018536;29;20194;-71
2022/03/21 01:12:23;;;;;;;30.17;27.27;;;9.20;99.90;;;;;;1018687;29;20075;-71
2022/03/21 01:12:55;;;;;;;30.93;28.03;;;9.20;99.90;;;;;;1018763;29;20166;-70
2022/03/21 01:13:25;;;;;;;29.45;26.55;;;9.10;99.90;;;;;;1018311;29;20027;-70
2022/03/21 01:13:56;;;;;;;28.40;25.50;;;9.20;99.90;;;;;;1018343;29;20036;-70
2022/03/21 01:14:26;;;;;;;27.70;24.93;;;9.10;99.90;;;;;;1018674;29;20023;-70
2022/03/21 01:14:57;;;;;;;27.70;25.13;;;9.20;99.90;;;;;;1018229;29;20019;-71
2022/03/21 01:15:28;;;;;;;26.88;24.27;;;9.10;99.90;;;;;;1010586;29;20115;-71
2022/03/21 01:15:59;;;;;;;27.58;24.80;;;9.10;99.90;;;;;;1017907;29;20106;-70
2022/03/21 01:16:29;;;;;;;27.90;25.37;;;9.10;99.90;;;;;;1018595;29;20008;-70
2022/03/21 01:17:00;;;;;;;27.47;24.67;;;9.10;99.90;;;;;;1018322;29;20106;-70
2022/03/21 01:17:31;;;;;;;26.93;24.20;;;9.10;99.90;;;;;;1018717;29;20054;-71
2022/03/21 01:18:01;;;;;;;27.47;24.77;;;9.10;99.90;;;;;;1018621;29;20019;-70
2022/03/21 01:18:32;;;;;;;27.87;24.87;;;9.10;99.90;;;;;;1018417;29;20040;-71
2022/03/21 01:19:02;;;;;;;27.13;24.43;;;9.10;99.90;;;;;;1018462;29;20018;-71
2022/03/21 01:19:33;;;;;;;28.17;25.37;;;9.20;99.90;;;;;;1018478;29;20103;-70
2022/03/21 01:20:04;;;;;;;28.00;25.40;;;9.20;99.90;;;;;;1015434;29;20159;-70
2022/03/21 01:20:35;;;;;;;29.63;26.63;;;9.20;99.90;;;;;;1017454;29;20111;-70
2022/03/21 01:21:05;;;;;;;28.07;24.97;;;9.20;99.90;;;;;;1014326;29;20027;-70
2022/03/21 01:21:36;;;;;;;28.70;25.87;;;9.10;99.90;;;;;;1014661;29;20134;-70
2022/03/21 01:22:06;;;;;;;28.80;26.00;;;9.10;99.90;;;;;;1014497;29;20044;-72
2022/03/21 01:22:37;;;;;;;28.07;25.23;;;9.10;99.90;;;;;;1014277;29;20032;-69
2022/03/21 01:23:07;;;;;;;29.27;26.37;;;9.10;99.90;;;;;;1014537;29;20031;-70
2022/03/21 01:23:38;;;;;;;28.67;25.70;;;9.10;99.90;;;;;;1014348;29;20111;-69
2022/03/21 01:24:09;;;;;;;29.27;26.45;;;9.10;99.90;;;;;;1014730;29;20028;-70
2022/03/21 01:24:40;;;;;;;28.80;26.13;;;9.10;99.90;;;;;;1014629;29;20027;-70
2022/03/21 01:25:11;;;;;;;28.33;25.25;;;9.10;99.90;;;;;;1018281;29;20023;-69
2022/03/21 01:25:42;;;;;;;30.60;27.58;;;9.10;99.90;;;;;;1017910;29;20042;-70
2022/03/21 01:26:12;;;;;;;29.13;26.37;;;9.10;99.90;;;;;;1018690;29;20028;-71
2022/03/21 01:26:43;;;;;;;30.00;26.30;;;9.10;99.90;;;;;;1018516;29;20103;-70
2022/03/21 01:27:13;;;;;;;28.30;25.60;;;9.00;99.90;;;;;;1018690;29;20024;-71
2022/03/21 01:27:45;;;;;;;29.90;27.00;;;9.00;99.90;;;;;;1018830;29;20103;-70
2022/03/21 01:28:15;;;;;;;29.15;26.30;;;9.00;99.90;;;;;;1018549;29;20020;-73
2022/03/21 01:28:46;;;;;;;29.17;26.40;;;9.00;99.90;;;;;;1018369;29;20027;-71
2022/03/21 01:29:16;;;;;;;28.30;25.57;;;9.00;99.90;;;;;;1018703;29;20031;-70
2022/03/21 01:29:47;;;;;;;27.80;25.10;;;9.00;99.90;;;;;;1018622;29;20059;-72
2022/03/21 01:30:18;;;;;;;28.50;25.67;;;9.00;99.90;;;;;;1018897;29;20106;-70
2022/03/21 01:30:49;;;;;;;28.90;26.15;;;9.00;99.90;;;;;;1018437;29;20263;-71
2022/03/21 01:31:20;;;;;;;30.07;27.37;;;9.00;99.90;;;;;;1019077;29;20091;-71
2022/03/21 01:31:50;;;;;;;27.73;25.10;;;9.00;99.90;;;;;;1018586;29;20051;-73
2022/03/21 01:32:21;;;;;;;27.50;24.80;;;9.00;99.90;;;;;;1018459;29;20031;-72
2022/03/21 01:32:51;;;;;;;30.00;27.10;;;9.00;99.90;;;;;;1018464;29;20050;-73
2022/03/21 01:33:22;;;;;;;27.83;25.07;;;9.00;99.90;;;;;;1018703;29;20027;-73
2022/03/21 01:33:53;;;;;;;28.87;26.00;;;9.00;99.90;;;;;;1018687;29;20094;-72
2022/03/21 01:34:24;;;;;;;27.92;24.90;;;9.00;99.90;;;;;;1019252;29;20032;-73
2022/03/21 01:34:55;;;;;;;30.00;27.20;;;9.00;99.90;;;;;;1018987;29;20023;-72
2022/03/21 01:35:25;;;;;;;27.43;24.73;;;9.00;99.90;;;;;;1018814;29;20038;-72
2022/03/21 01:35:56;;;;;;;27.73;25.03;;;9.00;99.90;;;;;;1018481;29;21019;-71
2022/03/21 01:36:26;;;;;;;29.47;26.60;;;8.90;99.90;;;;;;1018591;29;20039;-71
2022/03/21 01:36:57;;;;;;;27.97;25.27;;;9.00;99.90;;;;;;1018621;29;20773;-71
2022/03/21 01:37:27;;;;;;;29.37;26.50;;;9.00;99.90;;;;;;1018431;29;20035;-71
2022/03/21 01:37:58;;;;;;;27.80;25.07;;;9.00;99.90;;;;;;1018647;29;20232;-70
2022/03/21 01:38:28;;;;;;;28.53;25.67;;;8.90;99.90;;;;;;1018301;29;20040;-71
2022/03/21 01:38:59;;;;;;;27.57;24.77;;;8.90;99.90;;;;;;1018477;29;20031;-71
2022/03/21 01:39:29;;;;;;;28.17;25.40;;;8.90;99.90;;;;;;1019276;29;20028;-70
2022/03/21 01:40:00;;;;;;;27.20;24.53;;;9.00;99.90;;;;;;1018770;29;20039;-70
2022/03/21 01:40:31;;;;;;;26.93;24.13;;;9.00;99.90;;;;;;1018782;29;20478;-70
2022/03/21 01:41:02;;;;;;;26.67;23.87;;;9.00;99.90;;;;;;1018289;29;20036;-70
2022/03/21 01:41:32;;;;;;;30.20;27.13;;;9.00;99.90;;;;;;1015043;29;20070;-73
2022/03/21 01:42:03;;;;;;;27.43;24.63;;;9.00;99.90;;;;;;1014537;29;20016;-71
2022/03/21 01:42:36;;;;;;;27.23;24.50;;;9.00;99.90;;;;;;1014550;29;20476;-72
2022/03/21 01:43:13;;;;;;;26.02;23.42;;;9.00;99.90;;;;;;1014681;29;20011;-72
2022/03/21 01:43:59;;;;;;;29.45;26.65;;;9.00;99.90;;;;;;1014248;29;20129;-71
2022/03/21 01:44:30;;;;;;;28.70;25.90;;;9.00;99.90;;;;;;1014545;29;20016;-71
2022/03/21 01:45:00;;;;;;;27.07;24.37;;;9.00;99.90;;;;;;1010823;29;20036;-71
2022/03/21 01:45:32;;;;;;;28.97;26.10;;;8.90;99.90;;;;;;1008641;29;20029;-71
2022/03/21 01:46:02;;;;;;;28.08;25.35;;;9.00;99.90;;;;;;1014601;29;20594;-72
2022/03/21 01:46:34;;;;;;;27.77;25.10;;;9.00;99.90;;;;;;1011027;29;20694;-71
2022/03/21 01:47:05;;;;;;;28.38;25.52;;;8.90;99.90;;;;;;1014677;29;20016;-72
2022/03/21 01:47:35;;;;;;;27.97;25.23;;;8.90;99.90;;;;;;1015152;29;20016;-71
2022/03/21 01:48:07;;;;;;;29.50;26.40;;;8.90;99.90;;;;;;1014669;29;20016;-72
2022/03/21 01:48:37;;;;;;;28.30;25.50;;;9.00;99.90;;;;;;1014513;29;20655;-71
2022/03/21 01:49:09;;;;;;;27.90;25.20;;;8.90;99.90;;;;;;1014649;29;20667;-72
2022/03/21 01:49:40;;;;;;;27.92;25.13;;;8.90;99.90;;;;;;1014657;29;20076;-71
2022/03/21 01:50:12;;;;;;;28.58;25.67;;;8.90;99.90;;;;;;1018724;29;20016;-71
2022/03/21 01:50:43;;;;;;;27.02;24.23;;;8.90;99.90;;;;;;1018415;29;20016;-71
2022/03/21 01:51:14;;;;;;;28.58;25.75;;;8.90;99.90;;;;;;1018279;29;20420;-71
2022/03/21 01:51:45;;;;;;;29.33;26.63;;;8.90;99.90;;;;;;1014622;29;20448;-72
2022/03/21 01:52:16;;;;;;;29.40;26.57;;;8.80;99.90;;;;;;1014954;29;20079;-73
2022/03/21 01:52:47;;;;;;;29.60;26.63;;;8.80;99.90;;;;;;1015088;29;20252;-71
2022/03/21 01:55:48;;;;;;;29.20;26.27;;;8.80;99.90;;;;;;1015000;29;20031;-71
2022/03/21 01:56:18;;;;;;;30.65;26.77;;;8.80;99.90;;;;;;1015025;29;20068;-72
2022/03/21 01:56:49;;;;;;;30.63;27.63;;;8.70;99.90;;;;;;1018645;29;20092;-71
2022/03/21 01:57:20;;;;;;;28.67;25.98;;;8.70;99.90;;;;;;1018438;29;20463;-71
2022/03/21 01:57:52;;;;;;;28.95;26.25;;;8.70;99.90;;;;;;1018719;29;20110;-72
2022/03/21 01:58:25;;;;;;;28.95;26.25;;;8.70;99.90;;;;;;1018475;29;20055;-71
2022/03/21 01:58:56;;;;;;;28.80;26.02;;;8.70;99.90;;;;;;1018325;29;20170;-70
2022/03/21 01:59:27;;;;;;;28.92;26.02;;;8.70;99.90;;;;;;1018697;29;20199;-71
2022/03/21 01:59:58;;;;;;;28.75;25.92;;;8.70;99.90;;;;;;1018299;29;20031;-70
2022/03/21 02:00:29;;;;;;;28.40;25.63;;;8.70;99.90;;;;;;1018732;29;20024;-71
2022/03/21 02:00:59;;;;;;;27.25;24.63;;;8.70;99.90;;;;;;1018762;29;20051;-70
2022/03/21 02:01:30;;;;;;;28.73;25.93;;;8.70;99.90;;;;;;1018613;29;20015;-71
2022/03/21 02:02:00;;;;;;;29.43;26.47;;;8.70;99.90;;;;;;1018598;29;20380;-71
2022/03/21 02:02:32;;;;;;;30.00;27.07;;;8.70;99.90;;;;;;1018859;29;20030;-71
2022/03/21 02:03:02;;;;;;;27.75;24.90;;;8.70;99.90;;;;;;1019108;29;20067;-71
2022/03/21 02:03:33;;;;;;;28.00;25.27;;;8.60;99.90;;;;;;1018311;29;20136;-71
2022/03/21 02:04:04;;;;;;;29.73;26.83;;;8.70;99.90;;;;;;1018361;29;20032;-71
2022/03/21 02:04:34;;;;;;;29.42;26.60;;;8.70;99.90;;;;;;1018253;29;20098;-71
2022/03/21 02:05:05;;;;;;;30.87;27.70;;;8.70;99.90;;;;;;1018510;29;20439;-70
2022/03/21 02:05:37;;;;;;;26.67;24.00;;;8.60;99.90;;;;;;1018614;29;20811;-71
2022/03/21 02:06:08;;;;;;;29.88;27.02;;;8.60;99.90;;;;;;1018709;29;20076;-71
2022/03/21 02:06:39;;;;;;;26.87;24.27;;;8.60;99.90;;;;;;1016819;29;20030;-70
2022/03/21 02:07:10;;;;;;;28.93;26.20;;;8.60;99.90;;;;;;1014944;29;20064;-71
2022/03/21 02:07:41;;;;;;;29.48;26.65;;;8.60;99.90;;;;;;1014652;29;20024;-71
2022/03/21 02:08:11;;;;;;;26.80;24.27;;;8.60;99.90;;;;;;1015322;29;20031;-70
2022/03/21 02:08:43;;;;;;;29.17;26.00;;;8.60;99.90;;;;;;1014781;29;20025;-71
2022/03/21 02:09:14;;;;;;;27.67;25.05;;;8.60;99.90;;;;;;1015251;29;20052;-71
2022/03/21 02:09:45;;;;;;;28.90;26.10;;;8.60;99.90;;;;;;1018083;29;20019;-71
2022/03/21 02:10:15;;;;;;;29.70;26.93;;;8.60;99.90;;;;;;1018574;29;20122;-71
2022/03/21 02:10:46;;;;;;;27.83;25.10;;;8.60;99.90;;;;;;1018591;29;20051;-70
2022/03/21 02:11:19;;;;;;;27.70;25.00;;;8.50;99.90;;;;;;1018367;29;20087;-70
2022/03/21 02:11:50;;;;;;;27.40;24.90;;;8.60;99.90;;;;;;1014957;29;20023;-70
2022/03/21 02:12:20;;;;;;;27.87;24.20;;;8.60;99.90;;;;;;1017212;29;20032;-70
2022/03/21 02:12:51;;;;;;;28.10;25.20;;;8.60;99.90;;;;;;1019494;29;20159;-71
2022/03/21 02:13:22;;;;;;;26.03;23.33;;;8.60;99.90;;;;;;1020024;29;20024;-72
2022/03/21 02:13:57;;;;;;;28.25;25.52;;;8.60;99.90;;;;;;1019492;29;20500;-71
2022/03/21 02:14:28;;;;;;;28.10;25.33;;;8.60;99.90;;;;;;1019646;29;20027;-71
2022/03/21 02:14:58;;;;;;;28.08;25.27;;;8.60;99.90;;;;;;1019606;29;20135;-71
2022/03/21 02:15:29;;;;;;;28.57;25.83;;;8.60;99.90;;;;;;1016387;29;20027;-71
2022/03/21 02:16:00;;;;;;;28.40;25.63;;;8.60;99.90;;;;;;1016048;29;20028;-71
2022/03/21 02:16:33;;;;;;;27.83;24.93;;;8.60;99.90;;;;;;1019295;29;20857;-71
2022/03/21 02:17:03;;;;;;;27.73;24.92;;;8.60;99.90;;;;;;1016219;29;20031;-71
2022/03/21 02:17:36;;;;;;;27.80;25.00;;;8.60;99.90;;;;;;1015489;29;20032;-70
2022/03/21 02:18:08;;;;;;;28.13;25.40;;;8.60;99.90;;;;;;1015567;29;20111;-70
2022/03/21 02:18:42;;;;;;;28.13;25.35;;;8.60;99.90;;;;;;1015359;29;20020;-70
2022/03/21 02:19:16;;;;;;;29.85;26.88;;;8.60;99.90;;;;;;1015353;29;20027;-71
2022/03/21 02:19:48;;;;;;;27.48;24.85;;;8.60;99.90;;;;;;1015358;29;20028;-70
2022/03/21 02:20:19;;;;;;;28.38;25.58;;;8.50;99.90;;;;;;1015225;29;20119;-70
2022/03/21 02:20:53;;;;;;;27.85;25.00;;;8.50;99.90;;;;;;1015579;29;20035;-71
2022/03/21 02:21:37;;;;;;;28.70;25.70;;;8.50;99.90;;;;;;1015409;29;20487;-70
2022/03/21 02:22:25;;;;;;;29.23;26.35;;;8.50;99.90;;;;;;1015198;29;20076;-71
2022/03/21 02:23:07;;;;;;;28.98;26.18;;;8.50;99.90;;;;;;1015730;29;20440;-71
2022/03/21 02:23:46;;;;;;;29.20;26.13;;;8.50;99.90;;;;;;1015373;29;20078;-71
2022/03/21 02:24:36;;;;;;;28.02;25.20;;;8.50;99.90;;;;;;1015375;29;20096;-71
2022/03/21 02:25:34;;;;;;;27.77;24.98;;;8.50;99.90;;;;;;1015378;29;20028;-71
2022/03/21 02:26:08;;;;;;;28.65;25.75;;;8.50;99.90;;;;;;1018487;29;20775;-71
2022/03/21 02:26:38;;;;;;;29.75;26.90;;;8.50;99.90;;;;;;1019001;29;20095;-71
2022/03/21 02:27:10;;;;;;;29.80;26.60;;;8.50;99.90;;;;;;1017397;29;20091;-71
2022/03/21 02:27:42;;;;;;;29.38;26.42;;;8.40;99.90;;;;;;1015092;29;20035;-71
2022/03/21 02:28:15;;;;;;;29.25;26.42;;;8.50;99.90;;;;;;1015150;29;20034;-71
2022/03/21 02:28:49;;;;;;;28.83;25.75;;;8.50;99.90;;;;;;1015519;29;20075;-71
2022/03/21 02:29:21;;;;;;;28.23;25.45;;;8.50;99.90;;;;;;1015201;29;20035;-71
2022/03/21 02:29:54;;;;;;;27.55;24.70;;;8.50;99.90;;;;;;1020896;29;20081;-71
2022/03/21 02:30:29;;;;;;;28.73;25.85;;;8.40;99.90;;;;;;1023635;29;20028;-70
2022/03/21 02:31:00;;;;;;;32.13;28.92;;;8.40;99.90;;;;;;1023383;29;20030;-71
2022/03/21 02:31:34;;;;;;;29.92;26.98;;;8.40;99.90;;;;;;1023515;28;20031;-71
2022/03/21 02:32:06;;;;;;;29.02;26.30;;;8.40;99.90;;;;;;1022821;28;20022;-70
2022/03/21 02:32:37;;;;;;;29.35;25.83;;;8.40;99.90;;;;;;1019477;29;20031;-70
2022/03/21 02:33:09;;;;;;;28.15;25.38;;;8.40;99.90;;;;;;1019709;29;20043;-70
2022/03/21 02:33:40;;;;;;;29.10;26.17;;;8.40;99.90;;;;;;1019454;29;20043;-70
2022/03/21 02:34:10;;;;;;;29.03;26.07;;;8.40;99.90;;;;;;1019948;29;20067;-71
2022/03/21 02:34:41;;;;;;;28.03;25.27;;;8.40;99.90;;;;;;1017817;29;20035;-70
2022/03/21 02:35:14;;;;;;;28.43;25.77;;;8.40;99.90;;;;;;1011309;29;20148;-70
2022/03/21 02:35:48;;;;;;;28.73;25.88;;;8.40;99.90;;;;;;1011285;29;20543;-70
2022/03/21 02:36:20;;;;;;;29.27;26.35;;;8.30;99.90;;;;;;1012273;29;20031;-70
2022/03/21 02:36:59;;;;;;;28.38;25.55;;;8.40;99.90;;;;;;1015333;29;20083;-70
2022/03/21 02:37:30;;;;;;;29.33;26.33;;;8.30;99.90;;;;;;1017907;29;20039;-70
2022/03/21 02:38:01;;;;;;;29.88;27.08;;;8.30;99.90;;;;;;1020510;29;20123;-71
2022/03/21 02:38:33;;;;;;;29.05;26.20;;;8.30;99.90;;;;;;1023076;29;20031;-69
2022/03/21 02:39:04;;;;;;;29.75;26.75;;;8.30;99.90;;;;;;1019223;29;20107;-70
2022/03/21 02:39:35;;;;;;;27.63;24.90;;;8.30;99.90;;;;;;1019330;29;20090;-70
2022/03/21 02:40:08;;;;;;;30.55;27.58;;;8.30;99.90;;;;;;1019133;29;20563;-70
2022/03/21 02:40:39;;;;;;;29.98;27.08;;;8.30;99.90;;;;;;1015502;29;20020;-69
2022/03/21 02:41:11;;;;;;;27.27;24.67;;;8.30;99.90;;;;;;1019031;29;20123;-70
2022/03/21 02:41:42;;;;;;;30.60;27.55;;;8.30;99.90;;;;;;1019322;29;20028;-69
2022/03/21 02:42:14;;;;;;;28.40;25.80;;;8.30;99.90;;;;;;1015013;29;20016;-69
2022/03/21 02:42:44;;;;;;;30.65;27.67;;;8.30;99.90;;;;;;1011210;29;20147;-69
2022/03/21 02:43:15;;;;;;;29.27;26.50;;;8.20;99.90;;;;;;1013612;29;20025;-71
2022/03/21 02:43:54;;;;;;;28.53;25.80;;;8.20;99.90;;;;;;1019094;29;20035;-70
2022/03/21 02:44:31;;;;;;;30.98;27.95;;;8.20;99.90;;;;;;1015731;29;20036;-71